Time;durP1;ratioP1;P1;durP2;ratioP2;P2;SDS_P1;SDS_P2;PMS_P1;PMS_P2;Temp;Humidity;BMP_temperature;BMP_pressure;BME280_temperature;BME280_humidity;BME280_pressure;Samples;Min_cycle;Max_cycle;Signal;HPM_P1;HPM_P2
2022/12/19 00:02:36;;;;;;;;;;;1.40;99.90;;;;;;8375351;28;19952;-68
2022/12/19 00:06:37;;;;;;;;;;;1.40;99.90;;;;;;8380144;28;19959;-68
2022/12/19 00:10:52;;;;;;;;;;;1.40;99.90;;;;;;8397666;28;20307;-69
2022/12/19 00:14:54;;;;;;;;;;;1.40;99.90;;;;;;8383299;28;19931;-69
2022/12/19 00:18:57;;;;;;;;;;;1.40;99.90;;;;;;8380154;28;20019;-70
2022/12/19 00:22:58;;;;;;;;;;;1.50;99.90;;;;;;8384069;28;19924;-69
2022/12/19 00:27:00;;;;;;;;;;;1.50;99.90;;;;;;8368817;28;20440;-69
2022/12/19 00:31:02;;;;;;;;;;;1.50;99.90;;;;;;8382087;28;19936;-69
2022/12/19 00:35:04;;;;;;;;;;;1.50;99.90;;;;;;8375713;28;19931;-69
2022/12/19 00:39:06;;;;;;;;;;;1.60;99.90;;;;;;8374455;28;20023;-69
2022/12/19 00:43:09;;;;;;;;;;;1.60;99.90;;;;;;8363391;28;19924;-69
2022/12/19 00:47:10;;;;;;;;;;;1.60;99.90;;;;;;8381495;28;20047;-69
2022/12/19 00:51:14;;;;;;;;;;;1.60;99.90;;;;;;8369552;28;19928;-69
2022/12/19 00:55:16;;;;;;;;;;;1.60;99.90;;;;;;8381077;28;20000;-69
2022/12/19 00:59:19;;;;;;;;;;;1.70;99.90;;;;;;8381592;28;19952;-69
2022/12/19 01:03:27;;;;;;;;;;;1.70;99.90;;;;;;8370488;28;19947;-69
2022/12/19 01:07:28;;;;;;;;;;;1.70;99.90;;;;;;8387868;28;19993;-69
2022/12/19 01:15:50;;;;;;;;;;;1.80;99.90;;;;;;8385473;28;19935;-68
2022/12/19 01:19:52;;;;;;;;;;;1.80;99.90;;;;;;8398953;28;20015;-69
2022/12/19 01:23:53;;;;;;;;;;;1.80;99.90;;;;;;8390893;28;19982;-69
2022/12/19 01:27:55;;;;;;;;;;;1.90;99.90;;;;;;8375283;28;19924;-69
2022/12/19 01:31:57;;;;;;;;;;;1.90;99.90;;;;;;8397388;28;19924;-69
2022/12/19 01:45:46;;;;;;;;;;;2.10;99.90;;;;;;8384429;28;20287;-69
2022/12/19 01:49:48;;;;;;;;;;;2.10;99.90;;;;;;8382671;28;19932;-69
2022/12/19 01:53:51;;;;;;;;;;;2.20;99.90;;;;;;8386750;28;20002;-69
2022/12/19 01:57:54;;;;;;;;;;;2.30;99.90;;;;;;8374067;28;19956;-69
2022/12/19 02:02:13;;;;;;;;;;;2.40;99.90;;;;;;8378187;28;19940;-69
2022/12/19 02:06:16;;;;;;;;;;;2.50;99.90;;;;;;8389532;28;20012;-69
2022/12/19 02:10:18;;;;;;;;;;;2.50;99.90;;;;;;8371694;28;19925;-69
2022/12/19 02:14:19;;;;;;;;;;;2.60;99.90;;;;;;8388085;28;19979;-69
2022/12/19 02:18:21;;;;;;;;;;;2.70;99.90;;;;;;8384985;28;19931;-69
2022/12/19 02:22:41;;;;;;;;;;;2.80;99.90;;;;;;8393270;28;20023;-69
2022/12/19 02:26:49;;;;;;;;;;;2.80;99.90;;;;;;8389729;28;19929;-69
2022/12/19 02:31:13;;;;;;;;;;;2.90;99.90;;;;;;8395238;28;19924;-69
2022/12/19 02:35:36;;;;;;;;;;;3.00;99.90;;;;;;8364353;28;20340;-69
2022/12/19 02:39:38;;;;;;;;;;;3.00;99.90;;;;;;8374628;28;20398;-69
2022/12/19 02:43:41;;;;;;;;;;;3.10;99.90;;;;;;8388955;28;19924;-69
2022/12/19 02:47:43;;;;;;;;;;;3.10;99.90;;;;;;8380998;28;19947;-69
2022/12/19 02:51:45;;;;;;;;;;;3.10;99.90;;;;;;8391198;28;19931;-69
2022/12/19 02:55:47;;;;;;;;;;;3.20;99.90;;;;;;8387034;28;19960;-69
2022/12/19 02:59:57;;;;;;;;;;;3.20;99.90;;;;;;8379139;28;19939;-69
2022/12/19 03:04:05;;;;;;;;;;;3.20;99.90;;;;;;8383941;28;20394;-69
2022/12/19 03:08:12;;;;;;;;;;;3.20;99.90;;;;;;8390483;28;19924;-69
2022/12/19 03:12:17;;;;;;;;;;;3.20;99.90;;;;;;8384760;28;19964;-69
2022/12/19 03:16:18;;;;;;;;;;;3.30;99.90;;;;;;8381808;28;19931;-69
2022/12/19 03:20:20;;;;;;;;;;;3.30;99.90;;;;;;8378589;28;19924;-69
2022/12/19 03:24:22;;;;;;;;;;;3.40;99.90;;;;;;8389513;28;20015;-69
2022/12/19 03:28:31;;;;;;;;;;;3.40;99.90;;;;;;8394289;28;20032;-69
2022/12/19 03:32:34;;;;;;;;;;;3.40;99.90;;;;;;8377837;28;19959;-69
2022/12/19 03:36:39;;;;;;;;;;;3.50;99.90;;;;;;8385391;28;19971;-69
2022/12/19 03:45:43;;;;;;;;;;;3.50;99.90;;;;;;8387334;28;19919;-69
2022/12/19 03:49:46;;;;;;;;;;;3.50;99.90;;;;;;8388005;28;19932;-69
2022/12/19 03:53:57;;;;;;;;;;;3.60;99.90;;;;;;8388519;28;20002;-69
2022/12/19 03:58:04;;;;;;;;;;;3.60;99.90;;;;;;8381391;28;19932;-69
2022/12/19 04:02:07;;;;;;;;;;;3.60;99.90;;;;;;8382540;28;20383;-69
2022/12/19 04:06:09;;;;;;;;;;;3.60;99.90;;;;;;8382748;28;19931;-69
2022/12/19 04:20:39;;;;;;;;;;;3.80;99.90;;;;;;8381361;28;19966;-69
2022/12/19 04:24:42;;;;;;;;;;;3.80;99.90;;;;;;8387173;28;19935;-69
2022/12/19 04:28:53;;;;;;;;;;;3.80;99.90;;;;;;8387409;28;20287;-69
2022/12/19 04:32:55;;;;;;;;;;;3.90;99.90;;;;;;8380242;28;19925;-69
2022/12/19 04:36:57;;;;;;;;;;;3.90;99.90;;;;;;8381909;28;20448;-69
2022/12/19 04:40:59;;;;;;;;;;;3.90;99.90;;;;;;8377710;28;20015;-69
2022/12/19 04:45:00;;;;;;;;;;;4.00;99.90;;;;;;8380808;28;19929;-69
2022/12/19 04:49:02;;;;;;;;;;;4.10;99.90;;;;;;8387292;28;19928;-69
2022/12/19 04:53:04;;;;;;;;;;;4.10;99.90;;;;;;8388196;28;19924;-69
2022/12/19 05:07:26;;;;;;;;;;;4.30;99.90;;;;;;8372916;28;19935;-69
2022/12/19 05:11:27;;;;;;;;;;;4.40;99.90;;;;;;8391668;28;19925;-69
2022/12/19 05:15:29;;;;;;;;;;;4.50;99.90;;;;;;8369192;28;19929;-70
2022/12/19 05:19:31;;;;;;;;;;;4.60;99.90;;;;;;8366891;28;20018;-70
2022/12/19 05:23:33;;;;;;;;;;;4.70;99.90;;;;;;8395610;28;20007;-70
2022/12/19 05:27:34;;;;;;;;;;;4.80;99.90;;;;;;8386851;28;19925;-69
2022/12/19 05:31:36;;;;;;;;;;;4.90;99.90;;;;;;8382557;28;20013;-69
2022/12/19 05:35:38;;;;;;;;;;;5.00;99.90;;;;;;8394689;28;19925;-69
2022/12/19 05:39:40;;;;;;;;;;;5.10;99.90;;;;;;8377126;28;20289;-69
2022/12/19 05:43:42;;;;;;;;;;;5.20;99.90;;;;;;8388411;28;20368;-69
2022/12/19 05:47:45;;;;;;;;;;;5.30;99.90;;;;;;8389927;28;20352;-69
2022/12/19 05:51:47;;;;;;;;;;;5.40;99.90;;;;;;8372829;28;19952;-69
2022/12/19 05:55:49;;;;;;;;;;;5.40;99.90;;;;;;8372964;28;20455;-69
2022/12/19 05:59:51;;;;;;;;;;;5.50;99.90;;;;;;8374608;28;19935;-69
2022/12/19 06:03:53;;;;;;;;;;;5.60;99.90;;;;;;8371616;28;20019;-69
2022/12/19 06:07:55;;;;;;;;;;;5.60;99.90;;;;;;8387534;28;19925;-69
2022/12/19 06:11:57;;;;;;;;;;;5.70;99.90;;;;;;8381673;28;19932;-69
2022/12/19 06:16:10;;;;;;;;;;;5.80;99.90;;;;;;8386979;28;19933;-69
2022/12/19 06:20:11;;;;;;;;;;;5.80;99.90;;;;;;8383460;28;19928;-69
2022/12/19 06:24:13;;;;;;;;;;;5.90;99.90;;;;;;8392729;28;19928;-69
2022/12/19 06:28:15;;;;;;;;;;;6.00;99.90;;;;;;8379660;28;19990;-69
2022/12/19 06:32:16;;;;;;;;;;;6.00;99.90;;;;;;8371369;28;19979;-69
2022/12/19 06:36:19;;;;;;;;;;;6.10;99.90;;;;;;8370633;28;22077;-69
2022/12/19 06:44:42;;;;;;;;;;;6.30;99.90;;;;;;8398197;28;19931;-68
2022/12/19 06:48:43;;;;;;;;;;;6.40;99.90;;;;;;8380477;28;19932;-69
2022/12/19 06:52:45;;;;;;;;;;;6.40;99.90;;;;;;8392055;28;19924;-68
2022/12/19 06:56:47;;;;;;;;;;;6.50;99.90;;;;;;8363345;28;20285;-69
2022/12/19 07:00:48;;;;;;;;;;;6.60;99.90;;;;;;8377967;28;19924;-69
2022/12/19 07:04:53;;;;;;;;;;;6.60;99.90;;;;;;8376477;28;19985;-68
2022/12/19 07:08:55;;;;;;;;;;;6.70;99.90;;;;;;8381969;28;19931;-69
2022/12/19 07:12:56;;;;;;;;;;;6.70;99.90;;;;;;8371726;28;19947;-68
2022/12/19 07:16:59;;;;;;;;;;;6.80;99.90;;;;;;8386460;28;19925;-69
2022/12/19 07:21:01;;;;;;;;;;;6.80;99.90;;;;;;8391553;28;20434;-68
2022/12/19 07:25:04;;;;;;;;;;;6.80;99.90;;;;;;8381252;28;19941;-69
2022/12/19 07:29:07;;;;;;;;;;;6.80;99.90;;;;;;8388157;28;19928;-69
2022/12/19 07:33:09;;;;;;;;;;;6.80;99.90;;;;;;8354839;28;19924;-69
2022/12/19 07:37:12;;;;;;;;;;;6.90;99.90;;;;;;8384610;28;20007;-69
2022/12/19 07:41:14;;;;;;;;;;;6.90;99.90;;;;;;8381502;28;20019;-69
2022/12/19 07:45:15;;;;;;;;;;;7.00;99.90;;;;;;8388864;28;19967;-68
2022/12/19 07:49:17;;;;;;;;;;;7.00;99.90;;;;;;8373749;28;19931;-69
2022/12/19 07:53:23;;;;;;;;;;;7.00;99.90;;;;;;8367907;28;19925;-69
2022/12/19 07:57:24;;;;;;;;;;;7.10;99.90;;;;;;8391538;28;19931;-68
2022/12/19 08:01:26;;;;;;;;;;;7.10;99.90;;;;;;8387812;28;20399;-69
2022/12/19 08:05:29;;;;;;;;;;;7.20;99.90;;;;;;8391690;28;20308;-69
2022/12/19 08:09:31;;;;;;;;;;;7.20;99.90;;;;;;8387638;28;19933;-69
2022/12/19 08:13:33;;;;;;;;;;;7.20;99.90;;;;;;8376725;28;19942;-69
2022/12/19 08:17:40;;;;;;;;;;;7.30;99.90;;;;;;8374204;28;19951;-69
2022/12/19 08:21:41;;;;;;;;;;;7.30;99.90;;;;;;8390508;28;19928;-69
2022/12/19 08:25:43;;;;;;;;;;;7.30;99.90;;;;;;8393969;28;19932;-69
2022/12/19 08:29:46;;;;;;;;;;;7.30;99.90;;;;;;8363762;28;20044;-69
2022/12/19 08:33:48;;;;;;;;;;;7.40;99.90;;;;;;8395612;28;19986;-68
2022/12/19 08:37:49;;;;;;;;;;;7.40;99.90;;;;;;8389303;28;20027;-69
2022/12/19 08:41:51;;;;;;;;;;;7.40;99.90;;;;;;8374898;28;20015;-68
2022/12/19 08:45:53;;;;;;;;;;;7.40;99.90;;;;;;8394075;28;19929;-69
2022/12/19 08:49:55;;;;;;;;;;;7.40;99.90;;;;;;8381028;28;19958;-69
2022/12/19 08:53:57;;;;;;;;;;;7.50;99.90;;;;;;8399791;28;19925;-69
2022/12/19 08:57:58;;;;;;;;;;;7.50;99.90;;;;;;8397414;28;19928;-68
2022/12/19 09:02:00;;;;;;;;;;;7.50;99.90;;;;;;8395650;28;20028;-69
2022/12/19 09:06:04;;;;;;;;;;;7.60;99.90;;;;;;8381622;28;19925;-69
2022/12/19 09:10:10;;;;;;;;;;;7.50;99.90;;;;;;8389378;28;19929;-69
2022/12/19 09:14:12;;;;;;;;;;;7.60;99.90;;;;;;8392645;28;19925;-68
2022/12/19 09:18:14;;;;;;;;;;;7.60;99.90;;;;;;8398178;28;20023;-68
2022/12/19 09:22:15;;;;;;;;;;;7.60;99.90;;;;;;8385864;28;19925;-69
2022/12/19 09:26:18;;;;;;;;;;;7.60;99.90;;;;;;8377649;28;19932;-68
2022/12/19 09:30:19;;;;;;;;;;;7.60;99.90;;;;;;8378866;28;19924;-69
2022/12/19 09:34:21;;;;;;;;;;;7.70;99.90;;;;;;8398340;28;19924;-69
2022/12/19 09:38:24;;;;;;;;;;;7.70;99.90;;;;;;8391242;28;19933;-68
2022/12/19 09:42:34;;;;;;;;;;;7.70;99.90;;;;;;8383015;28;19925;-69
2022/12/19 09:46:48;;;;;;;;;;;7.80;99.90;;;;;;8391537;28;19932;-68
2022/12/19 09:50:52;;;;;;;;;;;7.80;99.90;;;;;;8396392;28;19924;-69
2022/12/19 09:55:10;;;;;;;;;;;7.80;99.90;;;;;;8395037;28;20300;-68
2022/12/19 09:59:12;;;;;;;;;;;7.80;99.90;;;;;;8381827;28;19931;-68
2022/12/19 10:03:16;;;;;;;;;;;7.80;99.90;;;;;;8399417;28;19925;-69
2022/12/19 10:07:19;;;;;;;;;;;7.90;99.90;;;;;;8377906;28;19928;-68
2022/12/19 10:12:03;;;;;;;;;;;7.90;99.90;;;;;;8394725;28;19967;-69
2022/12/19 10:16:49;;;;;;;;;;;7.90;99.90;;;;;;8388727;28;20331;-68
2022/12/19 10:21:16;;;;;;;;;;;8.00;99.90;;;;;;8387582;28;19935;-68
2022/12/19 10:25:24;;;;;;;;;;;8.10;99.90;;;;;;8399131;28;19939;-69
2022/12/19 10:29:29;;;;;;;;;;;8.10;99.90;;;;;;8387169;28;20023;-69
2022/12/19 10:33:54;;;;;;;;;;;8.10;99.90;;;;;;8394320;28;19935;-69
2022/12/19 10:38:06;;;;;;;;;;;8.10;99.90;;;;;;8350086;28;19964;-68
2022/12/19 10:42:28;;;;;;;;;;;8.20;99.90;;;;;;8370380;28;21475;-69
2022/12/19 10:46:46;;;;;;;;;;;8.20;99.90;;;;;;8374530;28;19929;-68
2022/12/19 10:50:48;;;;;;;;;;;8.30;99.90;;;;;;8376713;28;20284;-68
2022/12/19 10:54:50;;;;;;;;;;;8.30;99.90;;;;;;8381151;28;19925;-68
2022/12/19 10:59:00;;;;;;;;;;;8.30;99.90;;;;;;8382348;28;19925;-69
2022/12/19 11:03:12;;;;;;;;;;;8.30;99.90;;;;;;8396084;28;19972;-68
2022/12/19 11:07:17;;;;;;;;;;;8.40;99.90;;;;;;8395217;28;19936;-68
2022/12/19 11:11:20;;;;;;;;;;;8.40;99.90;;;;;;8394492;28;19932;-69
2022/12/19 11:15:46;;;;;;;;;;;8.40;99.90;;;;;;8389500;28;19932;-68
2022/12/19 11:20:26;;;;;;;;;;;8.50;99.90;;;;;;8388875;28;19931;-68
2022/12/19 11:24:49;;;;;;;;;;;8.50;99.90;;;;;;8387053;28;20007;-69
2022/12/19 11:29:22;;;;;;;;;;;8.60;99.90;;;;;;8387470;28;19928;-69
2022/12/19 11:33:44;;;;;;;;;;;8.60;99.90;;;;;;8381595;28;20249;-69
2022/12/19 11:37:49;;;;;;;;;;;8.70;99.90;;;;;;8388303;28;19964;-69
2022/12/19 11:42:00;;;;;;;;;;;8.70;99.90;;;;;;8379883;28;20288;-69
2022/12/19 11:46:05;;;;;;;;;;;8.70;99.90;;;;;;8377558;28;20376;-68
2022/12/19 11:50:16;;;;;;;;;;;8.80;99.90;;;;;;8393076;28;19972;-68
2022/12/19 11:54:20;;;;;;;;;;;8.80;99.90;;;;;;8389057;28;20347;-68
2022/12/19 11:58:24;;;;;;;;;;;8.90;99.90;;;;;;8364251;28;20419;-68
2022/12/19 12:02:44;;;;;;;;;;;8.90;99.90;;;;;;8391070;28;19932;-68
2022/12/19 12:06:50;;;;;;;;;;;8.90;99.90;;;;;;8368197;28;19925;-68
2022/12/19 12:10:59;;;;;;;;;;;8.90;99.90;;;;;;8357684;28;19925;-69
2022/12/19 12:15:27;;;;;;;;;;;8.90;99.90;;;;;;8386098;28;19925;-69
2022/12/19 12:19:52;;;;;;;;;;;8.90;99.90;;;;;;8378712;28;20002;-69
2022/12/19 12:24:32;;;;;;;;;;;9.00;99.90;;;;;;8379714;28;19928;-69
2022/12/19 12:28:57;;;;;;;;;;;9.00;99.90;;;;;;8378988;28;20384;-69
2022/12/19 12:33:33;;;;;;;;;;;9.10;99.90;;;;;;8377875;28;20114;-69
2022/12/19 12:38:13;;;;;;;;;;;9.10;99.90;;;;;;8381324;28;20027;-68
2022/12/19 12:42:39;;;;;;;;;;;9.20;99.90;;;;;;8374190;28;19932;-69
2022/12/19 12:46:43;;;;;;;;;;;9.30;99.90;;;;;;8374863;28;19964;-69
2022/12/19 12:50:46;;;;;;;;;;;9.30;99.90;;;;;;8380966;28;19954;-69
2022/12/19 12:54:56;;;;;;;;;;;9.30;99.90;;;;;;8373306;28;19994;-69
2022/12/19 12:59:02;;;;;;;;;;;9.40;99.90;;;;;;8397247;28;19931;-69
2022/12/19 13:03:17;;;;;;;;;;;9.40;99.90;;;;;;8406678;28;19924;-70
2022/12/19 13:07:26;;;;;;;;;;;9.40;99.90;;;;;;8392074;28;20253;-70
2022/12/19 13:15:48;;;;;;;;;;;9.50;99.90;;;;;;8372551;28;19928;-70
2022/12/19 13:19:53;;;;;;;;;;;9.50;99.90;;;;;;8363602;28;19925;-70
2022/12/19 13:24:10;;;;;;;;;;;9.50;99.90;;;;;;8380510;28;20293;-69
2022/12/19 13:28:19;;;;;;;;;;;9.60;99.90;;;;;;8378033;28;19928;-69
2022/12/19 13:32:22;;;;;;;;;;;9.60;99.90;;;;;;8386762;28;19978;-69
2022/12/19 13:36:42;;;;;;;;;;;9.60;99.90;;;;;;8378349;28;20407;-70
2022/12/19 13:45:40;;;;;;;;;;;9.60;99.90;;;;;;8370704;28;19938;-69
2022/12/19 13:49:42;;;;;;;;;;;9.60;99.90;;;;;;8393805;28;20017;-70
2022/12/19 13:53:44;;;;;;;;;;;9.60;99.90;;;;;;8382055;28;20280;-69
2022/12/19 13:57:47;;;;;;;;;;;9.60;99.90;;;;;;8375319;28;19925;-70
2022/12/19 14:01:51;;;;;;;;;;;9.70;99.90;;;;;;8395198;28;21460;-70
2022/12/19 14:05:57;;;;;;;;;;;9.70;99.90;;;;;;8383103;28;19939;-70
2022/12/19 14:10:22;;;;;;;;;;;9.60;99.90;;;;;;8379150;28;19925;-70
2022/12/19 14:19:20;;;;;;;;;;;9.70;99.90;;;;;;8375802;28;19933;-70
2022/12/19 14:23:21;;;;;;;;;;;9.60;99.90;;;;;;8380290;28;20395;-70
2022/12/19 14:27:55;;;;;;;;;;;9.70;99.90;;;;;;8399203;28;19971;-70
2022/12/19 14:32:17;;;;;;;;;;;9.70;99.90;;;;;;8392012;28;19924;-70
2022/12/19 14:36:39;;;;;;;;;;;9.60;99.90;;;;;;8393049;28;19928;-70
2022/12/19 14:40:41;;;;;;;;;;;9.70;99.90;;;;;;8367806;28;19972;-70
2022/12/19 14:45:22;;;;;;;;;;;9.70;99.90;;;;;;8372596;28;20360;-70
2022/12/19 14:49:44;;;;;;;;;;;9.70;99.90;;;;;;8373315;28;20394;-70
2022/12/19 14:54:09;;;;;;;;;;;9.70;99.90;;;;;;8368688;28;19983;-70
2022/12/19 14:58:32;;;;;;;;;;;9.70;99.90;;;;;;8377876;28;20344;-70
2022/12/19 15:02:55;;;;;;;;;;;9.60;99.90;;;;;;8398026;28;20011;-70
2022/12/19 15:07:00;;;;;;;;;;;9.70;99.90;;;;;;8390244;28;20376;-70
2022/12/19 15:15:59;;;;;;;;;;;9.70;99.90;;;;;;8392839;28;19940;-70
2022/12/19 15:20:01;;;;;;;;;;;9.70;99.90;;;;;;8373061;28;20292;-70
2022/12/19 15:24:03;;;;;;;;;;;9.80;99.90;;;;;;8372222;28;20304;-70
2022/12/19 15:28:10;;;;;;;;;;;9.80;99.90;;;;;;8396481;28;19924;-71
2022/12/19 15:32:14;;;;;;;;;;;9.80;99.90;;;;;;8379326;28;19925;-70
2022/12/19 15:36:15;;;;;;;;;;;9.70;99.90;;;;;;8392870;28;19978;-70
2022/12/19 15:40:17;;;;;;;;;;;9.60;99.90;;;;;;8362174;28;20284;-70
2022/12/19 15:44:23;;;;;;;;;;;9.60;99.90;;;;;;8380002;28;19928;-70
2022/12/19 15:48:25;;;;;;;;;;;9.60;99.90;;;;;;8372161;28;20372;-70
2022/12/19 15:52:27;;;;;;;;;;;9.50;99.90;;;;;;8387670;28;19931;-70
2022/12/19 15:56:32;;;;;;;;;;;9.40;99.90;;;;;;8382950;28;19971;-70
2022/12/19 16:00:34;;;;;;;;;;;9.40;99.90;;;;;;8353421;28;19936;-70
2022/12/19 16:04:36;;;;;;;;;;;9.40;99.90;;;;;;8356630;28;20487;-70
2022/12/19 16:08:38;;;;;;;;;;;9.40;99.90;;;;;;8358675;28;19933;-71
2022/12/19 16:12:46;;;;;;;;;;;9.40;99.90;;;;;;8361190;28;20016;-70
2022/12/19 16:16:50;;;;;;;;;;;9.50;99.90;;;;;;8357924;28;20431;-70
2022/12/19 16:20:52;;;;;;;;;;;9.50;99.90;;;;;;8355541;28;19932;-71
2022/12/19 16:24:54;;;;;;;;;;;9.40;99.90;;;;;;8355987;28;20344;-70
2022/12/19 16:28:56;;;;;;;;;;;9.50;99.90;;;;;;8356986;28;19925;-71
2022/12/19 16:32:57;;;;;;;;;;;9.60;99.90;;;;;;8340853;28;20373;-70
2022/12/19 16:36:59;;;;;;;;;;;9.60;99.90;;;;;;8365212;28;19932;-70
2022/12/19 16:41:01;;;;;;;;;;;9.70;99.90;;;;;;8355919;28;19925;-70
2022/12/19 16:45:03;;;;;;;;;;;9.70;99.90;;;;;;8357811;28;20408;-71
2022/12/19 16:49:05;;;;;;;;;;;9.70;99.90;;;;;;8356675;28;20027;-70
2022/12/19 16:53:06;;;;;;;;;;;9.80;99.90;;;;;;8351564;28;19933;-71
2022/12/19 16:57:16;;;;;;;;;;;9.80;99.90;;;;;;8364567;28;20364;-71
2022/12/19 17:01:19;;;;;;;;;;;9.80;99.90;;;;;;8370480;28;20062;-71
2022/12/19 17:05:22;;;;;;;;;;;9.90;99.90;;;;;;8352353;28;20385;-70
2022/12/19 17:09:24;;;;;;;;;;;9.80;99.90;;;;;;8359001;28;19936;-70
2022/12/19 17:13:26;;;;;;;;;;;9.90;99.90;;;;;;8363779;28;21636;-70
2022/12/19 17:17:27;;;;;;;;;;;9.80;99.90;;;;;;8357743;28;20326;-70
2022/12/19 17:21:29;;;;;;;;;;;9.80;99.90;;;;;;8364504;28;19964;-70
2022/12/19 17:25:31;;;;;;;;;;;9.80;99.90;;;;;;8358730;28;19925;-70
2022/12/19 17:29:32;;;;;;;;;;;9.80;99.90;;;;;;8340698;28;19936;-70
2022/12/19 17:33:35;;;;;;;;;;;9.80;99.90;;;;;;8359732;28;20055;-71
2022/12/19 17:37:37;;;;;;;;;;;9.80;99.90;;;;;;8360118;28;19929;-70
2022/12/19 17:41:38;;;;;;;;;;;9.80;99.90;;;;;;8357214;28;19925;-70
2022/12/19 17:45:40;;;;;;;;;;;9.70;99.90;;;;;;8343972;28;19939;-70
2022/12/19 17:49:42;;;;;;;;;;;9.70;99.90;;;;;;8357758;28;19928;-70
2022/12/19 17:53:44;;;;;;;;;;;9.70;99.90;;;;;;8375374;28;19929;-70
2022/12/19 17:57:46;;;;;;;;;;;9.70;99.90;;;;;;8358246;28;19924;-70
2022/12/19 18:01:48;;;;;;;;;;;9.60;99.90;;;;;;8356489;28;19956;-70
2022/12/19 18:05:51;;;;;;;;;;;9.60;99.90;;;;;;8355153;28;19934;-70
2022/12/19 18:09:53;;;;;;;;;;;9.70;99.90;;;;;;8361758;28;19939;-70
2022/12/19 18:13:54;;;;;;;;;;;9.70;99.90;;;;;;8361645;28;20024;-71
2022/12/19 18:17:56;;;;;;;;;;;9.70;99.90;;;;;;8362373;28;20383;-70
2022/12/19 18:21:58;;;;;;;;;;;9.70;99.90;;;;;;8345312;28;19925;-70
2022/12/19 18:25:59;;;;;;;;;;;9.80;99.90;;;;;;8343544;28;20054;-70
2022/12/19 18:30:03;;;;;;;;;;;9.80;99.90;;;;;;8356977;28;19933;-71
2022/12/19 18:34:05;;;;;;;;;;;9.90;99.90;;;;;;8360919;28;20288;-70
2022/12/19 18:38:21;;;;;;;;;;;9.90;99.90;;;;;;8380708;28;19932;-70
2022/12/19 18:42:23;;;;;;;;;;;9.90;99.90;;;;;;8363134;28;19928;-71
2022/12/19 18:46:26;;;;;;;;;;;9.90;99.90;;;;;;8359980;28;19931;-71
2022/12/19 18:50:28;;;;;;;;;;;10.00;99.90;;;;;;8355885;28;19985;-71
2022/12/19 18:54:30;;;;;;;;;;;10.00;99.90;;;;;;8356266;28;20027;-71
2022/12/19 18:58:32;;;;;;;;;;;10.00;99.90;;;;;;8356142;28;19971;-71
2022/12/19 19:02:33;;;;;;;;;;;10.00;99.90;;;;;;8356020;28;19983;-71
2022/12/19 19:06:35;;;;;;;;;;;10.00;99.90;;;;;;8357394;28;19975;-71
2022/12/19 19:10:38;;;;;;;;;;;10.10;99.90;;;;;;8356578;28;19932;-71
2022/12/19 19:14:40;;;;;;;;;;;10.10;99.90;;;;;;8359096;28;20276;-71
2022/12/19 19:18:43;;;;;;;;;;;10.10;99.90;;;;;;8357262;28;19947;-71
2022/12/19 19:22:45;;;;;;;;;;;10.10;99.90;;;;;;8356838;28;19929;-70
2022/12/19 19:26:48;;;;;;;;;;;10.00;99.90;;;;;;8356979;28;20292;-70
2022/12/19 19:30:50;;;;;;;;;;;10.00;99.90;;;;;;8340508;28;20356;-70
2022/12/19 19:34:52;;;;;;;;;;;10.00;99.90;;;;;;8360031;28;20008;-70
2022/12/19 19:38:54;;;;;;;;;;;10.00;99.90;;;;;;8355506;28;20451;-70
2022/12/19 19:42:56;;;;;;;;;;;10.00;99.90;;;;;;8356853;28;20288;-71
2022/12/19 19:46:58;;;;;;;;;;;10.00;99.90;;;;;;8354192;28;19936;-71
2022/12/19 19:51:00;;;;;;;;;;;10.00;99.90;;;;;;8354377;28;19925;-72
2022/12/19 19:55:01;;;;;;;;;;;9.90;99.90;;;;;;8357669;28;24273;-70
2022/12/19 19:59:03;;;;;;;;;;;9.90;99.90;;;;;;8351783;28;19963;-71
2022/12/19 20:03:05;;;;;;;;;;;9.90;99.90;;;;;;8353195;28;19978;-71
2022/12/19 20:07:10;;;;;;;;;;;9.90;99.90;;;;;;8361031;28;19935;-71
2022/12/19 20:11:12;;;;;;;;;;;9.90;99.90;;;;;;8364188;28;20468;-71
2022/12/19 20:15:14;;;;;;;;;;;9.90;99.90;;;;;;8369141;28;19925;-71
2022/12/19 20:19:15;;;;;;;;;;;9.80;99.90;;;;;;8360103;28;19924;-71
2022/12/19 20:23:17;;;;;;;;;;;9.80;99.90;;;;;;8373858;28;19928;-71
2022/12/19 20:27:19;;;;;;;;;;;9.70;99.90;;;;;;8372238;28;19928;-71
2022/12/19 20:31:21;;;;;;;;;;;9.70;99.90;;;;;;8353201;28;20011;-71
2022/12/19 20:35:23;;;;;;;;;;;9.70;99.90;;;;;;8336141;28;20050;-71
2022/12/19 20:39:25;;;;;;;;;;;9.60;99.90;;;;;;8352722;28;20019;-70
2022/12/19 20:43:27;;;;;;;;;;;9.60;99.90;;;;;;8364869;28;20035;-70
2022/12/19 20:47:29;;;;;;;;;;;9.50;99.90;;;;;;8345010;28;19964;-70
2022/12/19 20:51:31;;;;;;;;;;;9.50;99.90;;;;;;8361192;28;20012;-71
2022/12/19 20:55:32;;;;;;;;;;;9.50;99.90;;;;;;8364885;28;20035;-71
2022/12/19 20:59:34;;;;;;;;;;;9.50;99.90;;;;;;8373232;28;19939;-71
2022/12/19 21:03:37;;;;;;;;;;;9.40;99.90;;;;;;8342275;28;20389;-70
2022/12/19 21:07:39;;;;;;;;;;;9.40;99.90;;;;;;8362024;28;19924;-71
2022/12/19 21:11:40;;;;;;;;;;;9.40;99.90;;;;;;8366466;28;19929;-71
2022/12/19 21:15:42;;;;;;;;;;;9.40;99.90;;;;;;8363293;28;19963;-71
2022/12/19 21:19:43;;;;;;;;;;;9.40;99.90;;;;;;8369019;28;20434;-71
2022/12/19 21:23:45;;;;;;;;;;;9.50;99.90;;;;;;8367879;28;20048;-70
2022/12/19 21:27:47;;;;;;;;;;;9.50;99.90;;;;;;8353014;28;19929;-70
2022/12/19 21:31:48;;;;;;;;;;;9.60;99.90;;;;;;8378240;28;19971;-71
2022/12/19 21:35:50;;;;;;;;;;;9.60;99.90;;;;;;8366876;28;19924;-71
2022/12/19 21:39:52;;;;;;;;;;;9.70;99.90;;;;;;8350474;28;19928;-71
2022/12/19 21:43:54;;;;;;;;;;;9.70;99.90;;;;;;8366856;28;19978;-71
2022/12/19 21:47:56;;;;;;;;;;;9.70;99.90;;;;;;8350216;28;19931;-71
2022/12/19 21:51:58;;;;;;;;;;;9.80;99.90;;;;;;8342577;28;20360;-71
2022/12/19 21:56:03;;;;;;;;;;;9.80;99.90;;;;;;8359639;28;19924;-71
2022/12/19 22:05:34;;;;;;;;;;;9.90;99.90;;;;;;8388314;28;20058;-71
2022/12/19 22:09:36;;;;;;;;;;;9.90;99.90;;;;;;8395132;28;19925;-71
2022/12/19 22:13:38;;;;;;;;;;;10.00;99.90;;;;;;8373140;28;19935;-71
2022/12/19 22:17:39;;;;;;;;;;;10.00;99.90;;;;;;8387857;28;19931;-70
2022/12/19 22:21:42;;;;;;;;;;;10.00;99.90;;;;;;8390817;28;19929;-71
2022/12/19 22:25:43;;;;;;;;;;;10.00;99.90;;;;;;8385722;28;19924;-71
2022/12/19 22:29:45;;;;;;;;;;;9.90;99.90;;;;;;8384712;28;19956;-71
2022/12/19 22:33:47;;;;;;;;;;;9.90;99.90;;;;;;8373646;28;20376;-70
2022/12/19 22:37:49;;;;;;;;;;;9.90;99.90;;;;;;8386424;28;19924;-71
2022/12/19 22:41:51;;;;;;;;;;;9.90;99.90;;;;;;8380516;28;19925;-71
2022/12/19 22:45:52;;;;;;;;;;;9.90;99.90;;;;;;8382307;28;19925;-71
2022/12/19 22:49:55;;;;;;;;;;;9.90;99.90;;;;;;8381636;28;20322;-71
2022/12/19 22:53:57;;;;;;;;;;;9.90;99.90;;;;;;8393752;28;20014;-71
2022/12/19 22:57:58;;;;;;;;;;;9.90;99.90;;;;;;8359384;28;19976;-71
2022/12/19 23:02:00;;;;;;;;;;;9.90;99.90;;;;;;8392944;28;19982;-71
2022/12/19 23:06:02;;;;;;;;;;;9.90;99.90;;;;;;8388203;28;20380;-71
2022/12/19 23:10:04;;;;;;;;;;;9.90;99.90;;;;;;8388015;28;19925;-71
2022/12/19 23:14:07;;;;;;;;;;;9.90;99.90;;;;;;8379236;28;20364;-71
2022/12/19 23:18:09;;;;;;;;;;;9.90;99.90;;;;;;8381237;28;20035;-71
2022/12/19 23:22:10;;;;;;;;;;;9.90;99.90;;;;;;8375646;28;20711;-70
2022/12/19 23:26:14;;;;;;;;;;;9.90;99.90;;;;;;8387326;28;19931;-70
2022/12/19 23:30:16;;;;;;;;;;;9.90;99.90;;;;;;8361538;28;19924;-71
2022/12/19 23:34:18;;;;;;;;;;;9.90;99.90;;;;;;8393456;28;20033;-71
2022/12/19 23:38:20;;;;;;;;;;;9.90;99.90;;;;;;8379386;28;20265;-71
2022/12/19 23:42:21;;;;;;;;;;;9.90;99.90;;;;;;8385392;28;19924;-70
2022/12/19 23:46:25;;;;;;;;;;;10.00;99.90;;;;;;8376261;28;20019;-71
2022/12/19 23:50:26;;;;;;;;;;;10.00;99.90;;;;;;8379627;28;19935;-70
2022/12/19 23:54:28;;;;;;;;;;;10.00;99.90;;;;;;8378704;28;19925;-71
2022/12/19 23:58:30;;;;;;;;;;;10.00;99.90;;;;;;8389885;28;19936;-71
